createdAt,value
2022-12-06T00:01:14.614Z,4.50
2022-12-06T00:03:43.523Z,3.88
2022-12-06T00:06:12.756Z,4.70
2022-12-06T00:08:41.131Z,3.70
2022-12-06T00:11:11.073Z,4.15
2022-12-06T00:13:41.440Z,4.15
2022-12-06T00:16:11.229Z,3.70
2022-12-06T00:18:40.127Z,3.80
2022-12-06T00:21:09.699Z,4.50
2022-12-06T00:23:40.303Z,3.72
2022-12-06T00:26:09.283Z,3.60
2022-12-06T00:28:38.301Z,3.70
2022-12-06T00:31:10.502Z,3.70
2022-12-06T00:33:39.227Z,3.22
2022-12-06T00:36:08.611Z,3.10
2022-12-06T00:38:39.940Z,3.40
2022-12-06T00:41:09.794Z,3.58
2022-12-06T00:43:38.357Z,3.38
2022-12-06T00:46:08.854Z,3.60
2022-12-06T00:48:37.284Z,4.03
2022-12-06T00:51:05.625Z,3.55
2022-12-06T00:53:34.033Z,2.83
2022-12-06T00:56:02.452Z,3.40
2022-12-06T00:58:30.799Z,3.50
2022-12-06T01:01:10.183Z,3.03
2022-12-06T01:03:38.755Z,3.05
2022-12-06T01:06:07.865Z,3.05
2022-12-06T01:08:36.468Z,3.22
2022-12-06T01:11:05.943Z,2.65
2022-12-06T01:13:36.436Z,3.22
2022-12-06T01:16:08.570Z,3.17
2022-12-06T01:18:40.679Z,2.90
2022-12-06T01:21:09.968Z,3.53
2022-12-06T01:23:38.414Z,3.65
2022-12-06T01:26:07.620Z,3.35
2022-12-06T01:28:36.061Z,2.28
2022-12-06T01:31:08.705Z,2.67
2022-12-06T01:33:38.472Z,3.22
2022-12-06T01:36:06.787Z,2.90
2022-12-06T01:38:35.330Z,3.05
2022-12-06T01:41:07.009Z,3.10
2022-12-06T01:43:40.414Z,2.47
2022-12-06T01:46:14.335Z,2.60
2022-12-06T01:48:44.034Z,2.67
2022-12-06T01:51:13.273Z,2.40
2022-12-06T01:53:42.150Z,2.88
2022-12-06T01:56:10.627Z,2.05
2022-12-06T01:58:40.886Z,3.15
2022-12-06T02:01:09.740Z,2.60
2022-12-06T02:03:38.559Z,2.60
2022-12-06T02:06:09.827Z,2.13
2022-12-06T02:08:39.539Z,2.35
2022-12-06T02:11:09.191Z,2.17
2022-12-06T02:13:37.914Z,2.40
2022-12-06T02:16:13.958Z,2.50
2022-12-06T02:18:45.559Z,1.75
2022-12-06T02:21:20.958Z,2.30
2022-12-06T02:24:19.353Z,2.03
2022-12-06T02:26:50.322Z,2.13
2022-12-06T02:29:48.821Z,2.25
2022-12-06T02:32:19.641Z,2.28
2022-12-06T02:34:50.382Z,2.53
2022-12-06T02:37:23.174Z,2.28
2022-12-06T02:39:53.426Z,2.72
2022-12-06T02:42:25.649Z,2.75
2022-12-06T02:44:56.464Z,2.53
2022-12-06T02:47:27.475Z,1.98
2022-12-06T02:49:57.864Z,2.38
2022-12-06T02:52:27.778Z,2.25
2022-12-06T02:54:57.754Z,1.83
2022-12-06T02:57:29.259Z,2.45
2022-12-06T02:59:59.134Z,2.42
2022-12-06T03:02:29.125Z,2.55
2022-12-06T03:05:03.224Z,2.35
2022-12-06T03:07:36.495Z,2.40
2022-12-06T03:10:17.699Z,2.15
2022-12-06T03:12:53.037Z,3.00
2022-12-06T03:15:25.742Z,1.50
2022-12-06T03:17:58.139Z,2.30
2022-12-06T03:20:29.381Z,1.80
2022-12-06T03:23:02.342Z,2.22
2022-12-06T03:25:31.336Z,1.98
2022-12-06T03:28:00.424Z,1.67
2022-12-06T03:30:29.827Z,2.20
2022-12-06T03:32:59.652Z,2.03
2022-12-06T03:35:30.130Z,2.45
2022-12-06T03:38:02.404Z,1.80
2022-12-06T03:40:31.824Z,2.58
2022-12-06T03:43:00.368Z,1.58
2022-12-06T03:45:29.928Z,1.85
2022-12-06T03:48:02.196Z,1.77
2022-12-06T03:50:32.779Z,1.80
2022-12-06T03:53:01.842Z,2.58
2022-12-06T03:55:30.027Z,1.40
2022-12-06T03:57:58.235Z,2.00
2022-12-06T04:00:26.535Z,1.80
2022-12-06T04:02:57.927Z,2.42
2022-12-06T04:05:27.626Z,1.88
2022-12-06T04:07:56.001Z,1.90
2022-12-06T04:10:24.346Z,1.50
2022-12-06T04:13:01.738Z,1.73
2022-12-06T04:15:31.016Z,2.03
2022-12-06T04:18:13.820Z,1.83
2022-12-06T04:21:03.718Z,1.67
2022-12-06T04:23:33.233Z,1.73
2022-12-06T04:26:01.530Z,1.95
2022-12-06T04:28:47.440Z,1.90
2022-12-06T04:31:33.651Z,1.60
2022-12-06T04:34:19.574Z,1.85
2022-12-06T04:37:08.831Z,1.42
2022-12-06T04:39:38.004Z,2.03
2022-12-06T04:42:24.472Z,1.65
2022-12-06T04:44:54.336Z,1.30
2022-12-06T04:47:22.626Z,1.20
2022-12-06T04:49:52.918Z,2.13
2022-12-06T04:52:22.464Z,1.75
2022-12-06T04:54:50.923Z,1.23
2022-12-06T04:57:20.256Z,1.75
2022-12-06T04:59:49.332Z,1.60
2022-12-06T05:02:23.236Z,1.48
2022-12-06T05:04:51.454Z,1.83
2022-12-06T05:07:21.650Z,1.50
2022-12-06T05:09:51.184Z,1.75
2022-12-06T05:12:19.626Z,1.30
2022-12-06T05:14:47.977Z,2.22
2022-12-06T05:17:16.542Z,1.70
2022-12-06T05:19:50.230Z,1.42
2022-12-06T05:22:18.687Z,1.67
2022-12-06T05:24:46.864Z,2.03
2022-12-06T05:27:16.628Z,1.33
2022-12-06T05:29:45.178Z,1.58
2022-12-06T05:32:13.442Z,1.77
2022-12-06T05:34:41.701Z,1.42
2022-12-06T05:37:13.295Z,1.70
2022-12-06T05:39:41.531Z,1.45
2022-12-06T05:42:10.009Z,2.42
2022-12-06T05:44:43.851Z,1.67
2022-12-06T05:47:12.121Z,1.85
2022-12-06T05:49:41.542Z,1.70
2022-12-06T05:52:09.840Z,1.20
2022-12-06T05:54:38.069Z,1.83
2022-12-06T05:57:06.348Z,1.35
2022-12-06T05:59:34.702Z,1.50
2022-12-06T06:02:04.370Z,1.33
2022-12-06T06:04:32.826Z,1.60
2022-12-06T06:07:02.013Z,1.80
2022-12-06T06:09:30.211Z,1.25
2022-12-06T06:11:58.607Z,1.60
2022-12-06T06:14:30.936Z,1.65
2022-12-06T06:16:59.427Z,1.55
2022-12-06T06:19:30.937Z,2.03
2022-12-06T06:21:59.329Z,1.65
2022-12-06T06:24:27.731Z,1.90
2022-12-06T06:26:55.986Z,2.20
2022-12-06T06:29:24.706Z,1.67
2022-12-06T06:31:53.023Z,1.63
2022-12-06T06:34:24.337Z,2.22
2022-12-06T06:36:55.041Z,1.52
2022-12-06T06:39:23.391Z,2.17
2022-12-06T06:41:51.687Z,1.75
2022-12-06T06:44:21.057Z,1.83
2022-12-06T06:46:51.270Z,1.55
2022-12-06T06:49:19.634Z,1.80
2022-12-06T06:51:47.890Z,1.80
2022-12-06T06:54:18.248Z,2.13
2022-12-06T06:56:46.619Z,1.77
2022-12-06T06:59:16.073Z,1.60
2022-12-06T07:01:46.926Z,1.20
2022-12-06T07:04:17.654Z,1.85
2022-12-06T07:06:45.965Z,1.92
2022-12-06T07:09:14.726Z,1.77
2022-12-06T07:11:44.411Z,2.00
2022-12-06T07:14:12.803Z,1.77
2022-12-06T07:16:41.125Z,1.90
2022-12-06T07:19:11.155Z,2.22
2022-12-06T07:21:41.112Z,1.85
2022-12-06T07:24:09.835Z,2.00
2022-12-06T07:26:38.129Z,1.65
2022-12-06T07:29:07.801Z,1.95
2022-12-06T07:31:36.144Z,1.77
2022-12-06T07:34:05.067Z,2.85
2022-12-06T07:36:33.982Z,2.10
2022-12-06T07:39:02.647Z,2.90
2022-12-06T07:41:49.838Z,3.33
2022-12-06T07:45:01.153Z,2.28
2022-12-06T07:47:33.885Z,1.92
2022-12-06T07:50:06.383Z,2.30
2022-12-06T07:52:35.786Z,2.60
2022-12-06T07:55:04.425Z,2.85
2022-12-06T07:57:36.262Z,2.22
2022-12-06T08:00:10.934Z,2.55
2022-12-06T08:02:41.843Z,2.28
2022-12-06T08:05:10.530Z,2.55
2022-12-06T08:07:41.235Z,1.92
2022-12-06T08:10:11.452Z,2.20
2022-12-06T08:12:41.472Z,2.40
2022-12-06T08:15:13.091Z,2.22
2022-12-06T08:17:42.011Z,2.80
2022-12-06T08:20:13.297Z,2.00
2022-12-06T08:22:41.583Z,2.17
2022-12-06T08:25:10.226Z,2.30
2022-12-06T08:27:38.544Z,2.80
2022-12-06T08:30:07.611Z,2.40
2022-12-06T08:32:37.333Z,2.50
2022-12-06T08:35:05.784Z,2.33
2022-12-06T08:37:35.321Z,2.50
2022-12-06T08:40:07.481Z,2.95
2022-12-06T08:42:35.743Z,2.45
2022-12-06T08:45:04.417Z,2.75
2022-12-06T08:47:33.214Z,2.08
2022-12-06T08:50:03.473Z,2.65
2022-12-06T08:52:31.956Z,3.15
2022-12-06T08:55:00.269Z,2.78
2022-12-06T08:57:28.636Z,2.97
2022-12-06T08:59:56.888Z,3.17
2022-12-06T09:02:25.418Z,2.00
2022-12-06T09:04:53.749Z,2.08
2022-12-06T09:07:26.223Z,2.85
2022-12-06T09:09:55.359Z,2.65
2022-12-06T09:12:23.813Z,2.40
2022-12-06T09:14:52.090Z,2.65
2022-12-06T09:17:20.400Z,3.80
2022-12-06T09:19:48.698Z,3.30
2022-12-06T09:22:18.601Z,2.72
2022-12-06T09:24:49.426Z,2.88
2022-12-06T09:27:18.087Z,3.40
2022-12-06T09:29:46.519Z,2.63
2022-12-06T09:32:14.958Z,3.33
2022-12-06T09:34:44.247Z,3.10
2022-12-06T09:37:13.746Z,2.70
2022-12-06T09:39:43.876Z,2.17
2022-12-06T09:42:27.030Z,3.20
2022-12-06T09:45:08.827Z,2.03
2022-12-06T09:47:44.084Z,1.92
2022-12-06T09:50:17.640Z,2.03
2022-12-06T09:52:56.229Z,2.20
2022-12-06T09:55:30.320Z,2.95
2022-12-06T09:58:02.895Z,2.85
2022-12-06T10:00:37.431Z,1.90
2022-12-06T10:03:25.246Z,2.08
2022-12-06T10:06:01.051Z,2.55
2022-12-06T10:08:36.946Z,2.25
2022-12-06T10:11:10.516Z,2.22
2022-12-06T10:13:45.888Z,1.45
2022-12-06T10:16:21.365Z,2.03
2022-12-06T10:19:04.293Z,2.08
2022-12-06T10:21:38.388Z,2.00
2022-12-06T10:24:11.879Z,2.00
2022-12-06T10:26:46.746Z,2.20
2022-12-06T10:29:20.320Z,1.88
2022-12-06T10:31:56.891Z,1.60
2022-12-06T10:34:32.992Z,2.35
2022-12-06T10:37:06.700Z,2.05
2022-12-06T10:39:39.143Z,1.83
2022-12-06T10:42:13.863Z,1.55
2022-12-06T10:44:47.189Z,1.90
2022-12-06T10:47:20.956Z,1.88
2022-12-06T10:49:53.848Z,2.33
2022-12-06T10:52:27.940Z,2.85
2022-12-06T10:55:00.530Z,2.00
2022-12-06T10:57:32.492Z,2.75
2022-12-06T11:00:13.300Z,2.75
2022-12-06T11:02:47.712Z,2.00
2022-12-06T11:05:18.615Z,1.80
2022-12-06T11:07:48.764Z,2.10
2022-12-06T11:10:20.754Z,1.60
2022-12-06T11:12:50.331Z,3.72
2022-12-06T11:15:20.726Z,2.35
2022-12-06T11:17:59.393Z,1.85
2022-12-06T11:20:31.588Z,1.48
2022-12-06T11:23:07.242Z,1.90
2022-12-06T11:25:41.518Z,1.98
2022-12-06T11:28:21.607Z,1.67
2022-12-06T11:30:51.132Z,1.85
2022-12-06T11:33:22.188Z,1.35
2022-12-06T11:35:50.553Z,1.58
2022-12-06T11:38:18.816Z,1.50
2022-12-06T11:40:48.654Z,1.20
2022-12-06T11:43:21.731Z,1.33
2022-12-06T11:45:50.660Z,1.52
2022-12-06T11:48:20.720Z,0.95
2022-12-06T11:50:51.654Z,1.30
2022-12-06T11:53:25.186Z,1.38
2022-12-06T11:55:54.596Z,0.90
2022-12-06T11:58:27.840Z,1.35
2022-12-06T12:01:01.062Z,1.10
2022-12-06T12:03:30.741Z,1.17
2022-12-06T12:06:17.764Z,1.40
2022-12-06T12:08:52.749Z,1.30
2022-12-06T12:11:22.457Z,0.90
2022-12-06T12:13:52.350Z,1.23
2022-12-06T12:16:22.192Z,0.93
2022-12-06T12:18:52.938Z,0.90
2022-12-06T12:21:31.613Z,0.80
2022-12-06T12:24:01.342Z,0.98
2022-12-06T12:26:37.281Z,0.98
2022-12-06T12:29:07.292Z,0.85
2022-12-06T12:31:47.088Z,1.00
2022-12-06T12:34:17.702Z,1.10
2022-12-06T12:36:53.884Z,1.10
2022-12-06T12:39:26.711Z,0.73
2022-12-06T12:41:55.102Z,1.00
2022-12-06T12:44:41.104Z,1.48
2022-12-06T12:47:19.578Z,0.98
2022-12-06T12:50:02.180Z,0.80
2022-12-06T12:52:34.683Z,0.90
2022-12-06T12:55:05.024Z,1.38
2022-12-06T12:57:33.433Z,1.10
2022-12-06T13:00:01.769Z,1.85
2022-12-06T13:02:31.165Z,2.70
2022-12-06T13:05:32.465Z,1.88
2022-12-06T13:07:52.538Z,1.35
2022-12-06T13:10:22.423Z,1.30
2022-12-06T13:12:51.907Z,0.95
2022-12-06T13:15:21.432Z,1.00
2022-12-06T13:17:57.954Z,1.10
2022-12-06T13:20:29.175Z,1.50
2022-12-06T13:23:00.737Z,1.10
2022-12-06T13:25:29.018Z,1.30
2022-12-06T13:28:04.996Z,1.13
2022-12-06T13:30:38.052Z,1.02
2022-12-06T13:33:09.005Z,0.57
2022-12-06T13:35:40.869Z,1.00
2022-12-06T13:38:27.381Z,1.05
2022-12-06T13:40:55.983Z,0.80
2022-12-06T13:43:58.481Z,0.80
2022-12-06T13:46:33.714Z,0.50
2022-12-06T13:49:18.196Z,0.68
2022-12-06T13:51:48.569Z,0.40
2022-12-06T13:54:31.005Z,0.70
2022-12-06T13:57:00.308Z,0.60
2022-12-06T13:59:36.871Z,0.80
2022-12-06T14:02:26.698Z,0.57
2022-12-06T14:04:54.955Z,0.55
2022-12-06T14:07:34.740Z,0.95
2022-12-06T14:10:09.864Z,0.90
2022-12-06T14:12:38.967Z,0.68
2022-12-06T14:15:07.914Z,0.98
2022-12-06T14:20:30.595Z,0.88
2022-12-06T14:23:01.470Z,0.93
2022-12-06T14:25:31.762Z,0.73
2022-12-06T14:28:03.562Z,1.25
2022-12-06T14:30:32.333Z,0.90
2022-12-06T14:33:01.002Z,1.17
2022-12-06T14:35:30.792Z,1.50
2022-12-06T14:38:01.558Z,1.13
2022-12-06T14:40:57.180Z,1.67
2022-12-06T14:43:26.024Z,1.48
2022-12-06T14:45:54.697Z,0.93
2022-12-06T14:48:23.816Z,1.10
2022-12-06T14:50:52.126Z,1.13
2022-12-06T14:53:30.150Z,1.20
2022-12-06T14:56:00.749Z,1.25
2022-12-06T14:58:30.105Z,1.20
2022-12-06T15:01:06.174Z,1.15
2022-12-06T15:03:35.180Z,1.17
2022-12-06T15:06:14.347Z,1.42
2022-12-06T15:08:44.307Z,1.25
2022-12-06T15:11:50.828Z,1.55
2022-12-06T15:14:20.167Z,1.10
2022-12-06T15:16:57.888Z,0.73
2022-12-06T15:19:26.530Z,1.05
2022-12-06T15:21:54.940Z,1.00
2022-12-06T15:24:24.114Z,1.20
2022-12-06T15:26:54.281Z,1.27
2022-12-06T15:29:22.573Z,1.10
2022-12-06T15:31:52.130Z,0.85
2022-12-06T15:34:25.096Z,1.08
2022-12-06T15:37:15.276Z,1.05
2022-12-06T15:39:43.998Z,0.98
2022-12-06T15:42:17.742Z,0.88
2022-12-06T15:44:49.509Z,1.08
2022-12-06T15:47:20.064Z,1.08
2022-12-06T15:49:50.852Z,0.95
2022-12-06T15:52:22.877Z,0.90
2022-12-06T15:54:51.913Z,0.70
2022-12-06T15:57:21.592Z,0.60
2022-12-06T15:59:50.103Z,0.63
2022-12-06T16:02:19.635Z,1.10
2022-12-06T16:04:50.945Z,1.25
2022-12-06T16:07:19.883Z,0.85
2022-12-06T16:09:48.718Z,0.77
2022-12-06T16:12:16.954Z,0.73
2022-12-06T16:14:46.733Z,0.70
2022-12-06T16:17:15.788Z,1.67
2022-12-06T16:20:01.903Z,1.40
2022-12-06T16:22:47.758Z,1.00
2022-12-06T16:25:16.048Z,0.60
2022-12-06T16:27:44.559Z,0.85
2022-12-06T16:30:15.548Z,1.10
2022-12-06T16:32:43.983Z,1.15
2022-12-06T16:35:12.444Z,1.25
2022-12-06T16:37:41.974Z,1.10
2022-12-06T16:40:16.656Z,1.30
2022-12-06T16:42:46.541Z,1.30
2022-12-06T16:45:16.719Z,0.90
2022-12-06T16:47:45.810Z,1.20
2022-12-06T16:50:18.600Z,0.90
2022-12-06T16:52:47.363Z,1.17
2022-12-06T16:55:15.749Z,1.13
2022-12-06T16:57:44.033Z,1.27
2022-12-06T17:00:14.304Z,1.02
2022-12-06T17:02:44.658Z,1.50
2022-12-06T17:05:19.620Z,1.77
2022-12-06T17:07:48.104Z,1.50
2022-12-06T17:10:18.093Z,2.17
2022-12-06T17:12:47.609Z,1.92
2022-12-06T17:15:17.530Z,2.63
2022-12-06T17:17:47.580Z,1.90
2022-12-06T17:20:17.199Z,1.80
2022-12-06T17:22:45.552Z,1.50
2022-12-06T17:25:16.284Z,2.40
2022-12-06T17:27:44.730Z,2.40
2022-12-06T17:30:17.542Z,2.22
2022-12-06T17:32:48.498Z,2.42
2022-12-06T17:35:16.936Z,2.83
2022-12-06T17:37:45.153Z,2.25
2022-12-06T17:40:14.313Z,2.42
2022-12-06T17:42:59.867Z,2.10
2022-12-06T17:45:29.046Z,2.20
2022-12-06T17:47:58.790Z,1.83
2022-12-06T17:50:27.184Z,2.22
2022-12-06T17:52:55.447Z,2.08
2022-12-06T17:55:24.430Z,3.17
2022-12-06T17:57:52.706Z,5.90
2022-12-06T18:00:21.568Z,4.15
2022-12-06T18:02:50.014Z,5.25
2022-12-06T18:05:19.820Z,4.68
2022-12-06T18:07:48.701Z,4.15
2022-12-06T18:10:17.719Z,3.10
2022-12-06T18:12:46.012Z,2.67
2022-12-06T18:15:29.589Z,2.65
2022-12-06T18:17:57.987Z,2.85
2022-12-06T18:20:27.660Z,2.83
2022-12-06T18:22:56.040Z,3.47
2022-12-06T18:25:24.807Z,3.55
2022-12-06T18:27:53.155Z,5.90
2022-12-06T18:30:21.540Z,5.30
2022-12-06T18:32:51.758Z,5.68
2022-12-06T18:35:20.057Z,6.53
2022-12-06T18:37:49.740Z,7.13
2022-12-06T18:40:18.750Z,5.45
2022-12-06T18:42:47.517Z,4.35
2022-12-06T18:45:15.929Z,4.43
2022-12-06T18:47:44.529Z,4.45
2022-12-06T18:50:13.017Z,5.30
2022-12-06T18:52:41.354Z,5.30
2022-12-06T18:55:11.909Z,5.38
2022-12-06T18:57:40.567Z,7.57
2022-12-06T19:00:10.457Z,6.35
2022-12-06T19:02:39.387Z,4.47
2022-12-06T19:05:07.871Z,4.70
2022-12-06T19:07:36.553Z,4.53
2022-12-06T19:10:05.325Z,4.78
2022-12-06T19:12:35.723Z,3.92
2022-12-06T19:15:04.621Z,4.15
2022-12-06T19:17:33.185Z,3.13
2022-12-06T19:20:02.611Z,3.30
2022-12-06T19:22:31.203Z,4.20
2022-12-06T19:24:59.730Z,3.72
2022-12-06T19:27:28.107Z,3.92
2022-12-06T19:30:02.809Z,4.05
2022-12-06T19:32:31.168Z,4.57
2022-12-06T19:35:03.622Z,4.53
2022-12-06T19:37:36.730Z,3.80
2022-12-06T19:40:05.628Z,6.05
2022-12-06T19:42:52.056Z,6.07
2022-12-06T19:45:21.775Z,5.20
2022-12-06T19:47:49.957Z,5.45
2022-12-06T19:50:19.586Z,4.75
2022-12-06T19:52:52.348Z,5.60
2022-12-06T19:55:20.754Z,5.95
2022-12-06T19:57:49.464Z,5.35
2022-12-06T20:00:22.671Z,5.63
2022-12-06T20:02:52.780Z,5.20
2022-12-06T20:05:21.110Z,5.30
2022-12-06T20:07:49.541Z,5.15
2022-12-06T20:10:18.014Z,6.38
2022-12-06T20:12:56.414Z,5.65
2022-12-06T20:15:25.001Z,5.43
2022-12-06T20:17:54.593Z,4.95
2022-12-06T20:20:23.378Z,5.82
2022-12-06T20:22:51.905Z,5.25
2022-12-06T20:25:20.196Z,6.20
2022-12-06T20:27:55.844Z,4.97
2022-12-06T20:30:25.239Z,4.63
2022-12-06T20:32:54.828Z,4.28
2022-12-06T20:35:24.302Z,4.70
2022-12-06T20:37:52.663Z,4.63
2022-12-06T20:40:20.985Z,4.47
2022-12-06T20:42:50.236Z,4.90
2022-12-06T20:45:20.356Z,4.10
2022-12-06T20:47:50.371Z,4.22
2022-12-06T20:50:20.428Z,4.15
2022-12-06T20:52:49.500Z,4.55
2022-12-06T20:55:17.915Z,4.07
2022-12-06T20:57:46.954Z,4.38
2022-12-06T21:00:15.551Z,5.18
2022-12-06T21:02:43.889Z,4.50
2022-12-06T21:05:13.160Z,4.15
2022-12-06T21:07:42.940Z,4.53
2022-12-06T21:10:11.762Z,4.43
2022-12-06T21:12:40.893Z,4.40
2022-12-06T21:15:09.619Z,2.97
2022-12-06T21:17:37.986Z,4.50
2022-12-06T21:20:06.507Z,5.05
2022-12-06T21:22:34.888Z,4.57
2022-12-06T21:25:07.226Z,4.45
2022-12-06T21:27:35.912Z,5.13
2022-12-06T21:30:04.326Z,4.78
2022-12-06T21:32:32.676Z,4.45
2022-12-06T21:35:00.970Z,4.10
2022-12-06T21:37:29.207Z,4.60
2022-12-06T21:40:00.638Z,4.30
2022-12-06T21:42:33.164Z,4.80
2022-12-06T21:45:01.360Z,4.45
2022-12-06T21:47:31.317Z,4.90
2022-12-06T21:50:00.154Z,5.38
2022-12-06T21:52:30.635Z,4.38
2022-12-06T21:55:00.306Z,4.95
2022-12-06T21:57:28.674Z,4.55
2022-12-06T21:59:58.393Z,5.03
2022-12-06T22:02:26.807Z,4.35
2022-12-06T22:04:56.676Z,4.32
2022-12-06T22:07:25.339Z,4.28
2022-12-06T22:09:53.682Z,3.72
2022-12-06T22:12:23.771Z,4.25
2022-12-06T22:14:51.965Z,4.10
2022-12-06T22:17:23.659Z,3.88
2022-12-06T22:19:52.002Z,3.50
2022-12-06T22:22:20.581Z,4.20
2022-12-06T22:24:49.122Z,4.40
2022-12-06T22:27:17.682Z,3.85
2022-12-06T22:29:47.650Z,4.10
2022-12-06T22:32:15.969Z,3.70
2022-12-06T22:34:45.909Z,3.83
2022-12-06T22:37:15.749Z,4.10
2022-12-06T22:39:45.716Z,3.58
2022-12-06T22:42:14.282Z,3.30
2022-12-06T22:44:42.502Z,2.90
2022-12-06T22:47:10.849Z,3.45
2022-12-06T22:49:40.892Z,3.65
2022-12-06T22:52:12.349Z,3.10
2022-12-06T22:54:40.676Z,3.33
2022-12-06T22:57:08.941Z,2.90
2022-12-06T22:59:37.339Z,3.00
2022-12-06T23:02:05.749Z,2.63
2022-12-06T23:04:34.159Z,2.42
2022-12-06T23:07:03.090Z,2.47
2022-12-06T23:09:32.828Z,2.22
2022-12-06T23:12:01.202Z,2.08
2022-12-06T23:14:29.460Z,1.90
2022-12-06T23:16:58.830Z,1.65
2022-12-06T23:19:27.051Z,1.95
2022-12-06T23:21:55.394Z,1.92
2022-12-06T23:24:26.418Z,1.67
2022-12-06T23:26:59.338Z,1.52
2022-12-06T23:29:27.770Z,1.90
2022-12-06T23:31:58.118Z,1.27
2022-12-06T23:34:26.983Z,1.75
2022-12-06T23:36:57.104Z,2.40
2022-12-06T23:39:26.522Z,1.58
2022-12-06T23:41:56.270Z,1.80
2022-12-06T23:44:25.128Z,2.00
2022-12-06T23:46:53.607Z,1.75
2022-12-06T23:49:23.124Z,1.50
2022-12-06T23:51:51.667Z,1.60
2022-12-06T23:54:24.248Z,2.03
2022-12-06T23:56:52.566Z,1.88
2022-12-06T23:59:25.996Z,1.60
